CheckWX is a tool to help pilots better visualize weather data.  It is not intended as a substitute for an official pre-flight weather briefing.

17:29:39 UTC

KTTN TAF
Trenton Mercer Airport
Trenton, New Jersey, USA
KTTN 241301Z 2413/2512 24006KT P6SM SKC FM241600 25008G16KT P6SM SCT250 FM242300 24004KT P6SM BKN250 FM250400 VRB03KT P6SM BKN100 FM251000 35004KT P6SM BKN060

Mar-24@
13:00 UTC

Mar-24 @ 13:00 UTC

Mar-24@
16:00 UTC

Mar-24 @ 16:00 UTC

KTTN 241301Z 2413/2512 24006KT P6SM SKC

Expired

Wind
  • 240° at 6 KTS
Cloud Levels
  • Clear skies

Mar-24@
16:00 UTC

Mar-24 @ 16:00 UTC

Mar-24@
23:00 UTC

Mar-24 @ 23:00 UTC

FM241600 25008G16KT P6SM SCT250

From

From Standard forecast or significant change

Wind
  • 250° at 8 KTS
  • {Gusting to 16 KTS
Cloud Levels
  • Scattered at 25,000' AGL

Mar-24@
23:00 UTC

Mar-24 @ 23:00 UTC

Mar-25@
04:00 UTC

Mar-25 @ 04:00 UTC

FM242300 24004KT P6SM BKN250

From

From Standard forecast or significant change

Wind
  • 240° at 4 KTS
Cloud Levels
  • Broken at 25,000' AGL

Mar-25@
04:00 UTC

Mar-25 @ 04:00 UTC

Mar-25@
10:00 UTC

Mar-25 @ 10:00 UTC

FM250400 VRB03KT P6SM BKN100

From

From Standard forecast or significant change

Wind
  • Variable at 3 KTS
Cloud Levels
  • Broken at 10,000' AGL

Mar-25@
10:00 UTC

Mar-25 @ 10:00 UTC

Mar-25@
12:00 UTC

Mar-25 @ 12:00 UTC

FM251000 35004KT P6SM BKN060

From

From Standard forecast or significant change

Wind
  • 350° at 4 KTS
Cloud Levels
  • Broken at 6,000' AGL